createdAt,value
2019-03-10T00:00:50.711Z,99946.32
2019-03-10T00:03:37.056Z,99952.68
2019-03-10T00:06:23.563Z,99960.06
2019-03-10T00:09:10.363Z,99963.41
2019-03-10T00:11:56.331Z,99966.86
2019-03-10T00:14:42.290Z,99966.44
2019-03-10T00:17:29.035Z,99955.70
2019-03-10T00:20:15.051Z,99948.39
2019-03-10T00:23:01.227Z,99947.12
2019-03-10T00:25:48.071Z,99946.33
2019-03-10T00:28:34.556Z,99937.25
2019-03-10T00:31:20.562Z,99936.39
2019-03-10T00:34:07.394Z,99929.58
2019-03-10T00:36:53.812Z,99943.67
2019-03-10T00:40:08.043Z,99945.83
2019-03-10T00:43:31.091Z,99932.14
2019-03-10T00:46:51.688Z,99930.38
2019-03-10T00:50:19.902Z,99922.69
2019-03-10T00:53:06.398Z,99917.91
2019-03-10T00:55:53.319Z,99917.12
2019-03-10T00:58:54.369Z,99917.97
2019-03-10T01:01:47.847Z,99915.42
2019-03-10T01:04:34.748Z,99909.81
2019-03-10T01:07:20.895Z,99907.68
2019-03-10T01:10:08.076Z,99904.67
2019-03-10T01:12:55.512Z,99891.40
2019-03-10T01:15:44.634Z,99891.40
2019-03-10T01:18:36.512Z,99884.15
2019-03-10T01:21:23.092Z,99870.69
2019-03-10T01:24:09.040Z,99865.25
2019-03-10T01:26:55.413Z,99867.40
2019-03-10T01:29:41.440Z,99860.55
2019-03-10T01:33:21.817Z,99860.45
2019-03-10T01:36:15.618Z,99855.31
2019-03-10T01:39:01.655Z,99848.02
2019-03-10T01:41:48.484Z,99838.55
2019-03-10T01:44:34.627Z,99829.52
2019-03-10T01:47:20.912Z,99833.84
2019-03-10T01:50:09.019Z,99830.36
2019-03-10T01:52:55.324Z,99821.72
2019-03-10T01:55:41.532Z,99818.72
2019-03-10T01:58:28.798Z,99824.80
2019-03-10T02:01:15.479Z,99820.11
2019-03-10T02:04:01.840Z,99815.77
2019-03-10T02:06:48.959Z,99807.65
2019-03-10T02:09:35.055Z,99796.80
2019-03-10T02:12:21.359Z,99794.30
2019-03-10T02:15:09.733Z,99784.00
2019-03-10T02:17:59.166Z,99780.16
2019-03-10T02:20:45.835Z,99775.47
2019-03-10T02:23:33.264Z,99757.00
2019-03-10T02:26:19.448Z,99755.22
2019-03-10T02:29:05.466Z,99748.35
2019-03-10T02:31:52.631Z,99735.13
2019-03-10T02:34:39.181Z,99736.38
2019-03-10T02:37:25.373Z,99734.21
2019-03-10T02:40:12.688Z,99731.61
2019-03-10T02:42:59.068Z,99717.05
2019-03-10T02:45:45.407Z,99709.77
2019-03-10T02:48:33.073Z,99708.05
2019-03-10T02:51:19.632Z,99697.29
2019-03-10T02:54:06.000Z,99694.27
2019-03-10T02:56:52.404Z,99693.47
2019-03-10T02:59:38.314Z,99691.27
2019-03-10T03:02:24.262Z,99683.59
2019-03-10T03:05:10.814Z,99684.47
2019-03-10T03:07:57.092Z,99671.08
2019-03-10T03:10:43.135Z,99660.02
2019-03-10T03:13:30.245Z,99648.32
2019-03-10T03:16:16.251Z,99639.80
2019-03-10T03:19:02.220Z,99638.11
2019-03-10T03:21:49.108Z,99630.05
2019-03-10T03:24:35.465Z,99624.77
2019-03-10T03:27:21.397Z,99622.77
2019-03-10T03:30:09.446Z,99622.78
2019-03-10T03:32:55.629Z,99618.64
2019-03-10T03:35:56.728Z,99610.73
2019-03-10T03:38:46.598Z,99610.63
2019-03-10T03:41:32.968Z,99608.89
2019-03-10T03:44:18.969Z,99595.61
2019-03-10T03:47:05.986Z,99585.88
2019-03-10T03:49:51.953Z,99592.91
2019-03-10T03:52:38.006Z,99583.47
2019-03-10T03:55:24.858Z,99584.28
2019-03-10T03:58:12.003Z,99560.24
2019-03-10T04:01:03.873Z,99561.84
2019-03-10T04:03:50.708Z,99555.91
2019-03-10T04:06:37.316Z,99547.42
2019-03-10T04:09:23.188Z,99545.31
2019-03-10T04:12:10.254Z,99535.04
2019-03-10T04:14:56.839Z,99531.38
2019-03-10T04:17:42.609Z,99528.86
2019-03-10T04:20:29.589Z,99517.02
2019-03-10T04:23:16.114Z,99516.92
2019-03-10T04:26:02.478Z,99502.20
2019-03-10T04:28:49.289Z,99503.89
2019-03-10T04:31:35.706Z,99504.28
2019-03-10T04:34:22.084Z,99504.49
2019-03-10T04:37:09.439Z,99499.64
2019-03-10T04:39:55.946Z,99497.54
2019-03-10T04:42:42.128Z,99487.72
2019-03-10T04:45:28.897Z,99480.70
2019-03-10T04:48:15.135Z,99477.34
2019-03-10T04:51:01.592Z,99469.34
2019-03-10T04:53:48.620Z,99463.40
2019-03-10T04:56:49.713Z,99453.47
2019-03-10T04:59:35.809Z,99444.45
2019-03-10T05:02:22.714Z,99445.47
2019-03-10T05:05:09.371Z,99437.89
2019-03-10T05:07:55.303Z,99434.02
2019-03-10T05:10:42.000Z,99423.59
2019-03-10T05:13:27.917Z,99415.69
2019-03-10T05:16:14.012Z,99416.90
2019-03-10T05:19:00.808Z,99413.36
2019-03-10T05:21:47.225Z,99410.36
2019-03-10T05:24:33.663Z,99403.33
2019-03-10T05:27:20.357Z,99394.66
2019-03-10T05:30:06.903Z,99387.23
2019-03-10T05:32:53.171Z,99382.92
2019-03-10T05:35:39.917Z,99370.23
2019-03-10T05:38:26.528Z,99362.62
2019-03-10T05:41:12.875Z,99348.59
2019-03-10T05:43:59.441Z,99349.17
2019-03-10T05:46:45.632Z,99340.63
2019-03-10T05:49:31.741Z,99336.22
2019-03-10T05:52:18.854Z,99330.95
2019-03-10T05:55:05.514Z,99323.81
2019-03-10T05:57:51.611Z,99310.72
2019-03-10T06:00:43.077Z,99300.95
2019-03-10T06:03:26.786Z,99303.55
2019-03-10T06:06:13.453Z,99298.61
2019-03-10T06:09:00.025Z,99286.72
2019-03-10T06:11:46.456Z,99281.32
2019-03-10T06:14:32.781Z,99270.96
2019-03-10T06:17:21.357Z,99262.80
2019-03-10T06:20:07.494Z,99263.00
2019-03-10T06:22:54.056Z,99243.47
2019-03-10T06:25:40.341Z,99229.38
2019-03-10T06:28:26.549Z,99236.49
2019-03-10T06:31:12.717Z,99235.77
2019-03-10T06:33:59.705Z,99221.84
2019-03-10T06:36:45.757Z,99206.50
2019-03-10T06:39:41.421Z,99202.02
2019-03-10T06:42:48.887Z,99197.76
2019-03-10T06:45:35.397Z,99196.98
2019-03-10T06:48:22.068Z,99184.48
2019-03-10T06:51:08.468Z,99169.21
2019-03-10T06:53:54.689Z,99168.48
2019-03-10T06:56:41.686Z,99168.97
2019-03-10T06:59:28.162Z,99158.12
2019-03-10T07:02:22.094Z,99161.42
2019-03-10T07:05:20.509Z,99146.70
2019-03-10T07:08:15.622Z,99138.61
2019-03-10T07:11:01.720Z,99129.59
2019-03-10T07:13:48.086Z,99112.08
2019-03-10T07:16:34.946Z,99104.38
2019-03-10T07:19:21.406Z,99112.89
2019-03-10T07:22:07.612Z,99115.06
2019-03-10T07:24:54.344Z,99121.78
2019-03-10T07:27:55.289Z,99110.31
2019-03-10T07:31:11.821Z,99106.08
2019-03-10T07:34:29.409Z,99079.14
2019-03-10T07:37:25.434Z,99071.63
2019-03-10T07:40:36.718Z,99064.27
2019-03-10T07:43:41.168Z,99053.80
2019-03-10T07:46:52.587Z,99053.06
2019-03-10T07:49:59.033Z,99045.78
2019-03-10T07:53:10.122Z,99038.81
2019-03-10T07:56:19.594Z,99034.27
2019-03-10T07:59:33.593Z,99022.64
2019-03-10T08:02:39.994Z,99012.73
2019-03-10T08:05:51.695Z,99013.79
2019-03-10T08:08:51.242Z,98997.73
2019-03-10T08:11:47.114Z,98991.30
2019-03-10T08:14:41.386Z,98983.91
2019-03-10T08:17:40.093Z,98969.19
2019-03-10T08:20:35.060Z,98967.95
2019-03-10T08:23:43.327Z,98977.94
2019-03-10T08:26:49.582Z,98966.38
2019-03-10T08:30:00.906Z,98954.11
2019-03-10T08:33:07.788Z,98949.53
2019-03-10T08:36:09.105Z,98937.00
2019-03-10T08:39:15.406Z,98935.02
2019-03-10T08:42:39.578Z,98927.52
2019-03-10T08:45:48.486Z,98909.74
2019-03-10T08:48:41.954Z,98915.17
2019-03-10T08:51:54.018Z,98906.21
2019-03-10T08:54:49.510Z,98912.08
2019-03-10T08:58:04.487Z,98908.17
2019-03-10T09:01:16.246Z,98886.36
2019-03-10T09:04:15.420Z,98870.70
2019-03-10T09:07:29.721Z,98860.95
2019-03-10T09:10:36.850Z,98848.53
2019-03-10T09:13:54.674Z,98840.69
2019-03-10T09:17:12.534Z,98830.55
2019-03-10T09:20:10.446Z,98823.84
2019-03-10T09:23:04.166Z,98811.21
2019-03-10T09:26:00.390Z,98805.84
2019-03-10T09:29:00.522Z,98802.91
2019-03-10T09:32:15.111Z,98792.78
2019-03-10T09:35:09.193Z,98788.07
2019-03-10T09:38:04.276Z,98776.75
2019-03-10T09:41:01.283Z,98776.75
2019-03-10T09:44:10.078Z,98774.03
2019-03-10T09:47:05.471Z,98767.85
2019-03-10T09:50:10.849Z,98765.76
2019-03-10T09:53:28.508Z,98755.88
2019-03-10T09:56:36.591Z,98759.25
2019-03-10T09:59:51.152Z,98748.61
2019-03-10T10:03:11.982Z,98735.53
2019-03-10T10:06:22.943Z,98727.91
2019-03-10T10:09:31.823Z,98721.59
2019-03-10T10:12:37.003Z,98713.72
2019-03-10T10:15:42.871Z,98697.64
2019-03-10T10:18:48.963Z,98691.38
2019-03-10T10:22:06.483Z,98668.77
2019-03-10T10:25:18.974Z,98667.99
2019-03-10T10:28:23.055Z,98663.05
2019-03-10T10:31:27.759Z,98652.64
2019-03-10T10:34:19.335Z,98650.61
2019-03-10T10:37:27.821Z,98645.03
2019-03-10T10:40:39.310Z,98648.30
2019-03-10T10:43:44.101Z,98644.66
2019-03-10T10:46:55.574Z,98636.80
2019-03-10T10:49:52.963Z,98638.73
2019-03-10T10:53:01.395Z,98633.98
2019-03-10T10:56:22.220Z,98625.78
2019-03-10T10:59:33.858Z,98618.71
2019-03-10T11:02:41.075Z,98604.28
2019-03-10T11:05:46.609Z,98614.89
2019-03-10T11:08:44.194Z,98612.22
2019-03-10T11:11:48.377Z,98602.03
2019-03-10T11:14:45.176Z,98604.73
2019-03-10T11:17:49.447Z,98597.80
2019-03-10T11:20:45.444Z,98590.84
2019-03-10T11:24:09.120Z,98585.45
2019-03-10T11:27:00.735Z,98582.91
2019-03-10T11:29:52.630Z,98573.63
2019-03-10T11:32:55.939Z,98562.38
2019-03-10T11:36:19.898Z,98551.22
2019-03-10T11:39:27.396Z,98551.38
2019-03-10T11:42:37.368Z,98546.19
2019-03-10T11:45:43.703Z,98560.47
2019-03-10T11:48:52.311Z,98526.29
2019-03-10T11:52:00.485Z,98530.26
2019-03-10T11:54:56.764Z,98526.56
2019-03-10T11:57:51.497Z,98523.54
2019-03-10T12:00:56.346Z,98507.80
2019-03-10T12:03:52.633Z,98500.76
2019-03-10T12:06:47.116Z,98501.40
2019-03-10T12:09:33.325Z,98486.33
2019-03-10T12:12:19.771Z,98474.84
2019-03-10T12:15:07.062Z,98473.58
2019-03-10T12:17:53.267Z,98455.75
2019-03-10T12:20:40.281Z,98449.41
2019-03-10T12:23:26.445Z,98446.97
2019-03-10T12:26:12.974Z,98445.53
2019-03-10T12:28:59.714Z,98435.09
2019-03-10T12:31:45.751Z,98424.78
2019-03-10T12:34:31.786Z,98423.31
2019-03-10T12:37:20.140Z,98418.02
2019-03-10T12:40:07.342Z,98409.75
2019-03-10T12:42:55.645Z,98405.92
2019-03-10T12:45:42.062Z,98401.28
2019-03-10T12:48:28.389Z,98385.05
2019-03-10T12:51:14.455Z,98366.90
2019-03-10T12:54:00.934Z,98378.11
2019-03-10T12:56:46.886Z,98389.41
2019-03-10T12:59:40.732Z,98383.84
2019-03-10T13:02:27.536Z,98375.80
2019-03-10T13:05:14.235Z,98377.63
2019-03-10T13:08:02.174Z,98370.03
2019-03-10T13:10:49.070Z,98353.67
2019-03-10T13:13:35.594Z,98351.95
2019-03-10T13:16:22.505Z,98347.17
2019-03-10T13:22:38.766Z,98362.09
2019-03-10T13:25:26.700Z,98365.48
2019-03-10T13:28:13.090Z,98355.05
2019-03-10T13:30:59.969Z,98362.47
2019-03-10T13:33:46.665Z,98354.89
2019-03-10T13:36:33.043Z,98356.05
2019-03-10T13:39:21.078Z,98348.23
2019-03-10T13:42:07.840Z,98338.33
2019-03-10T13:44:54.492Z,98346.59
2019-03-10T13:47:40.493Z,98339.08
2019-03-10T13:50:27.326Z,98334.23
2019-03-10T13:53:13.428Z,98330.02
2019-03-10T13:56:01.565Z,98324.31
2019-03-10T13:58:48.465Z,98307.96
2019-03-10T14:01:35.360Z,98325.53
2019-03-10T14:04:21.162Z,98327.98
2019-03-10T14:07:09.021Z,98316.20
2019-03-10T14:09:55.437Z,98317.77
2019-03-10T14:12:41.381Z,98300.79
2019-03-10T14:15:28.217Z,98320.22
2019-03-10T14:18:14.541Z,98296.91
2019-03-10T14:21:05.701Z,98332.44
2019-03-10T14:23:52.642Z,98312.77
2019-03-10T14:26:39.050Z,98336.93
2019-03-10T14:29:25.316Z,98313.25
2019-03-10T14:32:11.645Z,98333.16
2019-03-10T14:34:59.053Z,98380.09
2019-03-10T14:37:44.942Z,98319.06
2019-03-10T14:40:31.509Z,98378.13
2019-03-10T14:43:17.772Z,98410.52
2019-03-10T14:46:04.415Z,98404.82
2019-03-10T14:48:50.717Z,98394.27
2019-03-10T14:51:37.168Z,98446.27
2019-03-10T14:54:23.057Z,98441.39
2019-03-10T14:57:09.514Z,98451.97
2019-03-10T14:59:55.322Z,98433.41
2019-03-10T15:02:41.269Z,98435.72
2019-03-10T15:05:31.146Z,98417.92
2019-03-10T15:08:20.581Z,98462.13
2019-03-10T15:11:06.969Z,98471.03
2019-03-10T15:13:53.528Z,98466.95
2019-03-10T15:16:41.637Z,98475.04
2019-03-10T15:19:31.069Z,98464.19
2019-03-10T15:22:18.739Z,98472.81
2019-03-10T15:25:06.384Z,98469.70
2019-03-10T15:27:53.574Z,98483.75
2019-03-10T15:30:40.325Z,98463.38
2019-03-10T15:33:27.399Z,98453.64
2019-03-10T15:36:20.325Z,98487.60
2019-03-10T15:39:03.554Z,98500.09
2019-03-10T15:41:50.209Z,98499.95
2019-03-10T15:44:38.773Z,98459.95
2019-03-10T15:47:25.334Z,98469.37
2019-03-10T15:50:17.404Z,98508.13
2019-03-10T15:53:03.994Z,98492.44
2019-03-10T15:55:51.461Z,98500.70
2019-03-10T15:58:38.252Z,98502.28
2019-03-10T16:01:24.606Z,98526.00
2019-03-10T16:04:19.168Z,98529.74
2019-03-10T16:07:05.622Z,98546.62
2019-03-10T16:09:52.003Z,98522.30
2019-03-10T16:12:39.070Z,98550.12
2019-03-10T16:15:26.057Z,98579.51
2019-03-10T16:18:13.510Z,98582.97
2019-03-10T16:21:00.326Z,98595.52
2019-03-10T16:23:46.670Z,98609.14
2019-03-10T16:26:32.746Z,98633.88
2019-03-10T16:29:19.230Z,98650.34
2019-03-10T16:32:05.134Z,98689.47
2019-03-10T16:34:51.419Z,98686.72
2019-03-10T16:37:40.579Z,98755.38
2019-03-10T16:40:27.906Z,98789.84
2019-03-10T16:43:14.401Z,98844.44
2019-03-10T16:46:01.223Z,98893.02
2019-03-10T16:48:47.310Z,98936.91
2019-03-10T16:51:34.953Z,98982.27
2019-03-10T16:54:21.357Z,99035.78
2019-03-10T16:57:09.720Z,99069.94
2019-03-10T16:59:56.674Z,99112.56
2019-03-10T17:02:43.977Z,99135.58
2019-03-10T17:05:30.578Z,99173.05
2019-03-10T17:08:17.048Z,99226.70
2019-03-10T17:11:03.550Z,99226.70
2019-03-10T17:13:49.966Z,99249.66
2019-03-10T17:16:36.790Z,99266.98
2019-03-10T17:19:22.678Z,99316.80
2019-03-10T17:22:08.722Z,99316.80
2019-03-10T17:24:57.406Z,99325.66
2019-03-10T17:27:43.617Z,99355.52
2019-03-10T17:30:32.250Z,99386.95
2019-03-10T17:33:19.107Z,99389.02
2019-03-10T17:36:05.423Z,99421.00
2019-03-10T17:38:52.030Z,99421.00
2019-03-10T17:41:38.322Z,99452.63
2019-03-10T17:44:25.383Z,99458.47
2019-03-10T17:47:16.015Z,99461.30
2019-03-10T17:50:02.962Z,99479.62
2019-03-10T17:52:49.777Z,99479.62
2019-03-10T17:55:38.755Z,99488.57
2019-03-10T17:58:25.659Z,99501.38
2019-03-10T18:01:11.634Z,99514.34
2019-03-10T18:03:58.040Z,99526.30
2019-03-10T18:06:50.724Z,99533.63
2019-03-10T18:10:01.904Z,99541.73
2019-03-10T18:12:48.375Z,99541.73
2019-03-10T18:15:35.027Z,99566.78
2019-03-10T18:18:21.179Z,99566.78
2019-03-10T18:21:07.090Z,99573.41
2019-03-10T18:23:53.922Z,99582.55
2019-03-10T18:26:40.405Z,99581.91
2019-03-10T18:29:26.507Z,99588.75
2019-03-10T18:32:13.098Z,99588.75
2019-03-10T18:34:59.157Z,99589.63
2019-03-10T18:37:45.591Z,99594.94
2019-03-10T18:40:31.997Z,99601.41
2019-03-10T18:43:18.317Z,99595.91
2019-03-10T18:46:05.554Z,99595.89
2019-03-10T18:48:52.455Z,99599.29
2019-03-10T18:51:38.971Z,99612.94
2019-03-10T18:54:25.037Z,99612.94
2019-03-10T18:57:10.902Z,99608.29
2019-03-10T19:00:00.054Z,99608.29
2019-03-10T19:02:47.591Z,99616.17
2019-03-10T19:05:34.306Z,99623.98
2019-03-10T19:08:20.406Z,99624.94
2019-03-10T19:11:07.186Z,99637.70
2019-03-10T19:13:55.553Z,99636.50
2019-03-10T19:16:42.198Z,99646.86
2019-03-10T19:19:28.642Z,99653.88
2019-03-10T19:22:16.446Z,99666.17
2019-03-10T19:25:02.394Z,99666.17
2019-03-10T19:27:48.735Z,99682.52
2019-03-10T19:30:34.942Z,99685.81
2019-03-10T19:33:20.762Z,99688.27
2019-03-10T19:36:07.403Z,99688.20
2019-03-10T19:38:53.892Z,99694.09
2019-03-10T19:41:40.082Z,99699.16
2019-03-10T19:44:26.607Z,99678.66
2019-03-10T19:47:13.273Z,99685.41
2019-03-10T19:49:59.688Z,99685.41
2019-03-10T19:52:46.018Z,99683.19
2019-03-10T19:55:34.698Z,99676.33
2019-03-10T19:58:21.000Z,99670.00
2019-03-10T20:01:06.807Z,99673.98
2019-03-10T20:03:53.354Z,99716.91
2019-03-10T20:06:43.154Z,99726.84
2019-03-10T20:09:29.592Z,99726.93
2019-03-10T20:12:15.487Z,99752.27
2019-03-10T20:21:07.088Z,99760.06
2019-03-10T20:23:52.785Z,99767.39
2019-03-10T20:26:39.321Z,99773.45
2019-03-10T20:29:25.261Z,99775.62
2019-03-10T20:32:14.083Z,99782.38
2019-03-10T20:34:59.650Z,99778.25
2019-03-10T20:37:45.569Z,99779.47
2019-03-10T20:40:31.619Z,99781.12
2019-03-10T20:43:18.659Z,99769.89
2019-03-10T20:46:04.814Z,99772.06
2019-03-10T20:48:52.572Z,99778.14
2019-03-10T20:51:39.236Z,99774.34
2019-03-10T20:54:27.257Z,99792.42
2019-03-10T20:57:13.308Z,99794.17
2019-03-10T21:00:00.725Z,99808.63
2019-03-10T21:02:53.216Z,99815.59
2019-03-10T21:05:39.821Z,99822.41
2019-03-10T21:08:26.146Z,99814.01
2019-03-10T21:11:12.546Z,99819.22
2019-03-10T21:13:58.689Z,99836.66
2019-03-10T21:16:45.274Z,99824.67
2019-03-10T21:19:31.200Z,99823.80
2019-03-10T21:22:17.424Z,99826.30
2019-03-10T21:25:04.913Z,99834.60
2019-03-10T21:27:51.072Z,99840.91
2019-03-10T21:31:40.785Z,99851.76
2019-03-10T21:37:23.969Z,99843.73
2019-03-10T21:40:12.845Z,99846.27
2019-03-10T21:42:59.212Z,99852.52
2019-03-10T21:45:45.336Z,99847.34
2019-03-10T21:48:31.591Z,99845.58
2019-03-10T21:51:20.409Z,99845.59
2019-03-10T21:54:06.473Z,99846.48
2019-03-10T21:56:52.791Z,99852.97
2019-03-10T21:59:39.069Z,99849.77
2019-03-10T22:02:27.066Z,99861.68
2019-03-10T22:05:13.229Z,99863.17
2019-03-10T22:07:59.702Z,99864.03
2019-03-10T22:10:48.185Z,99874.91
2019-03-10T22:13:34.266Z,99865.05
2019-03-10T22:16:20.516Z,99857.06
2019-03-10T22:19:06.735Z,99867.67
2019-03-10T22:21:52.744Z,99882.13
2019-03-10T22:24:41.717Z,99891.98
2019-03-10T22:27:28.290Z,99905.12
2019-03-10T22:30:15.345Z,99900.56
2019-03-10T22:33:01.847Z,99900.80
2019-03-10T22:35:47.897Z,99900.95
2019-03-10T22:38:33.914Z,99900.31
2019-03-10T22:41:24.061Z,99899.98
2019-03-10T22:44:13.252Z,99900.84
2019-03-10T22:46:59.329Z,99906.48
2019-03-10T22:49:45.832Z,99912.16
2019-03-10T22:52:31.806Z,99906.02
2019-03-10T22:55:17.997Z,99887.02
2019-03-10T22:58:04.350Z,99887.02
2019-03-10T23:00:52.158Z,99893.37
2019-03-10T23:03:38.218Z,99905.61
2019-03-10T23:06:24.637Z,99888.28
2019-03-10T23:09:10.777Z,99888.28
2019-03-10T23:11:56.566Z,99893.64
2019-03-10T23:14:42.802Z,99902.37
2019-03-10T23:17:29.918Z,99885.00
2019-03-10T23:20:19.276Z,99889.05
2019-03-10T23:23:05.817Z,99878.30
2019-03-10T23:25:51.876Z,99888.05
2019-03-10T23:28:37.850Z,99886.46
2019-03-10T23:31:25.864Z,99884.20
2019-03-10T23:34:11.990Z,99863.77
2019-03-10T23:36:58.040Z,99871.36
2019-03-10T23:39:44.135Z,99862.27
2019-03-10T23:42:30.169Z,99862.70
2019-03-10T23:45:18.029Z,99861.55
2019-03-10T23:48:04.444Z,99845.34
2019-03-10T23:50:50.729Z,99845.34
2019-03-10T23:53:36.950Z,99829.64
2019-03-10T23:56:23.299Z,99829.64
2019-03-10T23:59:09.215Z,99832.24
